Time;durP1;ratioP1;P1;durP2;ratioP2;P2;SDS_P1;SDS_P2;PMS_P1;PMS_P2;Temp;Humidity;BMP_temperature;BMP_pressure;BME280_temperature;BME280_humidity;BME280_pressure;Samples;Min_cycle;Max_cycle;Signal;HPM_P1;HPM_P2
2023/12/26 00:00:22;;;;;;;9.63;1.98;;;10.40;99.90;;;;;;6275718;28;20507;-87
2023/12/26 00:03:24;;;;;;;6.35;1.73;;;10.30;99.90;;;;;;6300870;28;20078;-86
2023/12/26 00:06:26;;;;;;;8.20;1.80;;;10.20;99.90;;;;;;6277782;28;20051;-87
2023/12/26 00:09:28;;;;;;;7.90;1.83;;;10.20;99.90;;;;;;6300697;28;20048;-86
2023/12/26 00:12:29;;;;;;;9.57;2.03;;;10.20;99.90;;;;;;6293462;28;20076;-86
2023/12/26 00:15:31;;;;;;;8.38;2.10;;;10.10;99.90;;;;;;6298261;28;20062;-87
2023/12/26 00:18:33;;;;;;;9.70;2.10;;;10.10;99.90;;;;;;6266756;28;20071;-86
2023/12/26 00:21:35;;;;;;;11.90;1.90;;;10.10;99.90;;;;;;6299968;28;20064;-86
2023/12/26 00:24:36;;;;;;;9.10;2.03;;;10.00;99.90;;;;;;6275655;28;20052;-88
2023/12/26 00:27:39;;;;;;;10.77;1.80;;;10.00;99.90;;;;;;6300144;28;20068;-86
2023/12/26 00:30:41;;;;;;;16.52;2.78;;;10.00;99.90;;;;;;6277088;28;20526;-86
2023/12/26 00:33:43;;;;;;;12.05;2.13;;;10.00;99.90;;;;;;6271594;28;20079;-87
2023/12/26 00:36:45;;;;;;;11.02;2.10;;;9.90;99.90;;;;;;6304432;28;20052;-86
2023/12/26 00:39:46;;;;;;;12.73;2.22;;;9.90;99.90;;;;;;6280388;28;20057;-88
2023/12/26 00:42:48;;;;;;;9.93;2.50;;;9.90;99.90;;;;;;6301560;28;20105;-87
2023/12/26 00:45:50;;;;;;;10.27;2.20;;;9.90;99.90;;;;;;6257664;28;20436;-88
2023/12/26 00:48:52;;;;;;;13.75;1.98;;;9.90;99.90;;;;;;6279200;28;20056;-87
2023/12/26 00:51:54;;;;;;;10.63;2.05;;;9.90;99.90;;;;;;6255147;28;20100;-88
2023/12/26 00:54:56;;;;;;;10.95;1.70;;;9.90;99.90;;;;;;6278770;28;20057;-87
2023/12/26 00:57:57;;;;;;;16.52;2.00;;;9.90;99.90;;;;;;6256387;28;20044;-87
2023/12/26 01:00:59;;;;;;;14.60;2.60;;;9.90;99.90;;;;;;6279983;28;20098;-86
2023/12/26 01:04:01;;;;;;;9.75;2.40;;;10.00;99.90;;;;;;6248329;28;20116;-88
2023/12/26 01:07:03;;;;;;;12.35;2.97;;;9.90;99.90;;;;;;6295139;28;20053;-88
2023/12/26 01:10:05;;;;;;;17.80;2.95;;;10.00;99.90;;;;;;6254744;28;20089;-87
2023/12/26 01:13:06;;;;;;;10.95;2.40;;;10.00;99.90;;;;;;6273456;28;20187;-88
2023/12/26 01:16:08;;;;;;;13.57;2.13;;;9.90;99.90;;;;;;6254107;28;20148;-89
2023/12/26 01:19:10;;;;;;;9.65;2.25;;;9.90;99.90;;;;;;6278085;28;20056;-87
2023/12/26 01:22:12;;;;;;;7.78;1.65;;;9.90;99.90;;;;;;6254289;28;20056;-87
2023/12/26 01:25:14;;;;;;;13.38;2.33;;;9.90;99.90;;;;;;6277836;28;20052;-86
2023/12/26 01:28:15;;;;;;;10.18;2.03;;;9.90;99.90;;;;;;6257087;28;20051;-88
2023/12/26 01:31:17;;;;;;;15.02;2.33;;;9.90;99.90;;;;;;6278149;28;20091;-86
2023/12/26 01:34:19;;;;;;;11.63;2.28;;;9.80;99.90;;;;;;6271571;28;20599;-86
2023/12/26 01:37:21;;;;;;;11.63;1.83;;;9.70;99.90;;;;;;6277549;28;20052;-87
2023/12/26 01:40:22;;;;;;;13.95;2.47;;;9.60;99.90;;;;;;6253099;28;20059;-87
2023/12/26 01:43:24;;;;;;;12.32;1.98;;;9.60;99.90;;;;;;6268760;28;20049;-87
2023/12/26 01:46:26;;;;;;;12.50;2.00;;;9.50;99.90;;;;;;6275478;28;20499;-86
2023/12/26 01:49:27;;;;;;;15.15;2.03;;;9.50;99.90;;;;;;6295806;28;20488;-88
2023/12/26 01:52:30;;;;;;;12.82;2.25;;;9.40;99.90;;;;;;6252810;28;20520;-89
2023/12/26 01:55:31;;;;;;;13.52;1.88;;;9.50;99.90;;;;;;6276737;28;20057;-87
2023/12/26 01:58:33;;;;;;;17.88;2.65;;;9.50;99.90;;;;;;6260497;28;20060;-87
2023/12/26 02:01:34;;;;;;;15.50;2.63;;;9.40;99.90;;;;;;6253091;28;20053;-88
2023/12/26 02:04:36;;;;;;;13.57;2.28;;;9.30;99.90;;;;;;6277027;28;20106;-89
2023/12/26 02:07:38;;;;;;;11.07;2.10;;;9.30;99.90;;;;;;6271712;28;20147;-88
2023/12/26 02:10:39;;;;;;;13.77;2.13;;;9.30;99.90;;;;;;6277118;28;20052;-88
2023/12/26 02:13:41;;;;;;;15.55;2.30;;;9.20;99.90;;;;;;6260859;28;20056;-87
2023/12/26 02:16:43;;;;;;;9.40;1.67;;;9.30;99.90;;;;;;6252792;28;20053;-88
2023/12/26 02:19:44;;;;;;;10.15;2.25;;;9.20;99.90;;;;;;6276133;28;20145;-87
2023/12/26 02:22:46;;;;;;;13.80;1.90;;;9.10;99.90;;;;;;6252441;28;20068;-86
2023/12/26 02:25:48;;;;;;;12.02;1.63;;;9.00;99.90;;;;;;6276306;28;20055;-85
2023/12/26 02:28:49;;;;;;;11.32;1.90;;;9.00;99.90;;;;;;6258900;28;20068;-87
2023/12/26 02:31:51;;;;;;;12.55;1.77;;;8.90;99.90;;;;;;6252786;28;20421;-85
2023/12/26 02:35:00;;;;;;;14.38;2.08;;;8.90;99.90;;;;;;6277559;28;20052;-88
2023/12/26 02:38:01;;;;;;;10.25;1.77;;;8.90;99.90;;;;;;6247149;28;20057;-87
2023/12/26 02:41:03;;;;;;;9.98;1.63;;;8.80;99.90;;;;;;6310320;28;20291;-86
2023/12/26 02:44:05;;;;;;;13.48;1.50;;;8.70;99.90;;;;;;6267980;28;20095;-86
2023/12/26 02:47:06;;;;;;;6.78;1.67;;;8.80;99.90;;;;;;6303412;28;20399;-85
2023/12/26 02:50:08;;;;;;;11.48;1.80;;;8.70;99.90;;;;;;6302325;28;20063;-86
2023/12/26 02:53:09;;;;;;;6.70;1.40;;;8.60;99.90;;;;;;6294805;28;20415;-86
2023/12/26 02:56:11;;;;;;;12.73;1.60;;;8.60;99.90;;;;;;6299988;28;20064;-86
2023/12/26 02:59:13;;;;;;;8.93;2.10;;;8.60;99.90;;;;;;6306596;28;20048;-87
2023/12/26 03:02:15;;;;;;;9.93;1.95;;;8.50;99.90;;;;;;6296042;28;20397;-86
2023/12/26 03:05:16;;;;;;;11.98;1.63;;;8.50;99.90;;;;;;6303115;28;20521;-87
2023/12/26 03:08:18;;;;;;;8.57;1.80;;;8.40;99.90;;;;;;6277552;28;20064;-86
2023/12/26 03:11:19;;;;;;;13.85;2.10;;;8.40;99.90;;;;;;6318775;28;20491;-84
2023/12/26 03:14:21;;;;;;;14.27;2.25;;;8.30;99.90;;;;;;6289336;28;20059;-85
2023/12/26 03:17:23;;;;;;;13.80;2.40;;;8.30;99.90;;;;;;6276351;28;20049;-86
2023/12/26 03:20:24;;;;;;;14.00;2.40;;;8.30;99.90;;;;;;6300115;28;20185;-87
2023/12/26 03:23:26;;;;;;;15.60;2.22;;;8.20;99.90;;;;;;6276542;28;20048;-86
2023/12/26 03:26:27;;;;;;;8.98;1.80;;;8.20;99.90;;;;;;6317669;28;20058;-86
2023/12/26 03:29:29;;;;;;;13.00;2.00;;;8.20;99.90;;;;;;6308381;28;20525;-87
2023/12/26 03:32:31;;;;;;;11.27;1.83;;;8.10;99.90;;;;;;6276162;28;20059;-87
2023/12/26 03:35:33;;;;;;;14.10;2.40;;;8.10;99.90;;;;;;6318231;28;20056;-87
2023/12/26 03:38:34;;;;;;;12.68;1.73;;;8.10;99.90;;;;;;6276754;28;20053;-87
2023/12/26 03:41:36;;;;;;;13.70;2.08;;;8.00;99.90;;;;;;6300415;28;20060;-87
2023/12/26 03:44:38;;;;;;;11.15;1.88;;;7.90;99.90;;;;;;6282080;28;20056;-87
2023/12/26 03:47:39;;;;;;;17.63;2.00;;;7.90;99.90;;;;;;6276177;28;20059;-87
2023/12/26 03:50:41;;;;;;;15.88;2.30;;;7.80;99.90;;;;;;6300078;28;20060;-86
2023/12/26 03:53:43;;;;;;;13.60;2.63;;;7.90;99.90;;;;;;6293639;28;20052;-85
2023/12/26 03:56:45;;;;;;;13.88;2.00;;;7.90;99.90;;;;;;6299805;28;20062;-86
2023/12/26 03:59:47;;;;;;;16.95;2.78;;;7.90;99.90;;;;;;6274439;28;20061;-87
2023/12/26 04:02:49;;;;;;;13.00;2.13;;;7.90;99.90;;;;;;6321296;28;20062;-86
2023/12/26 04:05:50;;;;;;;17.23;2.17;;;8.10;99.90;;;;;;6280689;28;20147;-85
2023/12/26 04:08:52;;;;;;;16.23;2.80;;;8.00;99.90;;;;;;6322656;28;20060;-86
2023/12/26 04:11:54;;;;;;;15.48;2.55;;;8.00;99.90;;;;;;6279977;28;20055;-86
2023/12/26 04:14:56;;;;;;;18.25;2.17;;;8.00;99.90;;;;;;6301450;28;20063;-86
2023/12/26 04:17:58;;;;;;;22.50;2.75;;;8.10;99.90;;;;;;6297930;28;20056;-87
2023/12/26 04:21:00;;;;;;;17.73;2.15;;;8.00;99.90;;;;;;6304180;28;20048;-86
2023/12/26 04:24:02;;;;;;;18.60;2.63;;;8.00;99.90;;;;;;6279558;28;20060;-85
2023/12/26 04:27:04;;;;;;;19.63;2.65;;;8.00;99.90;;;;;;6321944;28;20404;-86
2023/12/26 04:30:05;;;;;;;19.08;2.47;;;8.00;99.90;;;;;;6296352;28;20044;-86
2023/12/26 04:33:09;;;;;;;18.50;2.65;;;7.90;99.90;;;;;;6321919;28;20165;-86
2023/12/26 04:36:11;;;;;;;15.48;2.47;;;8.00;99.90;;;;;;6279576;28;20135;-86
2023/12/26 04:39:13;;;;;;;14.48;2.28;;;8.00;99.90;;;;;;6321452;28;20071;-86
2023/12/26 04:42:15;;;;;;;14.88;2.50;;;8.00;99.90;;;;;;6279598;28;20158;-86
2023/12/26 04:45:16;;;;;;;21.42;2.60;;;8.00;99.90;;;;;;6319150;28;20067;-85
2023/12/26 04:48:18;;;;;;;18.23;2.95;;;8.00;99.90;;;;;;6279634;28;20061;-86
2023/12/26 04:51:20;;;;;;;14.60;2.92;;;7.90;99.90;;;;;;6303017;28;20629;-86
2023/12/26 04:54:22;;;;;;;17.05;2.75;;;7.90;99.90;;;;;;6279126;28;20048;-85
2023/12/26 04:57:24;;;;;;;14.90;2.20;;;7.90;99.90;;;;;;6303081;28;20052;-86
2023/12/26 05:00:25;;;;;;;17.65;2.35;;;7.80;99.90;;;;;;6279131;28;20159;-86
2023/12/26 05:03:27;;;;;;;21.33;2.40;;;7.90;99.90;;;;;;6303163;28;20048;-87
2023/12/26 05:06:29;;;;;;;16.00;2.60;;;7.90;99.90;;;;;;6297419;28;20060;-85
2023/12/26 05:09:31;;;;;;;22.70;2.60;;;7.80;99.90;;;;;;6302996;28;20059;-85
2023/12/26 05:12:32;;;;;;;18.52;2.80;;;7.80;99.90;;;;;;6296435;28;20408;-86
2023/12/26 05:15:34;;;;;;;16.08;2.83;;;7.70;99.90;;;;;;6301132;28;20519;-84
2023/12/26 05:18:36;;;;;;;13.68;2.40;;;7.70;99.90;;;;;;6278403;28;20059;-86
2023/12/26 05:21:37;;;;;;;17.42;2.40;;;7.70;99.90;;;;;;6302390;28;20052;-85
2023/12/26 05:24:39;;;;;;;12.13;2.38;;;7.70;99.90;;;;;;6296397;28;20056;-85
2023/12/26 05:27:52;;;;;;;17.77;2.35;;;7.70;99.90;;;;;;6275431;28;20053;-84
2023/12/26 05:30:53;;;;;;;14.40;2.25;;;7.70;99.90;;;;;;6321697;28;20098;-85
2023/12/26 05:33:55;;;;;;;19.73;2.40;;;7.70;99.90;;;;;;6278580;28;20370;-85
2023/12/26 05:36:57;;;;;;;20.58;2.75;;;7.70;99.90;;;;;;6302424;28;20044;-85
2023/12/26 05:39:58;;;;;;;15.23;2.47;;;7.60;99.90;;;;;;6278785;28;20048;-85
2023/12/26 05:43:00;;;;;;;16.58;2.08;;;7.60;99.90;;;;;;6297422;28;20049;-86
2023/12/26 05:46:02;;;;;;;13.80;1.95;;;7.60;99.90;;;;;;6276292;28;20143;-85
2023/12/26 05:49:04;;;;;;;20.70;2.65;;;7.60;99.90;;;;;;6320689;28;20158;-85
2023/12/26 05:52:06;;;;;;;16.00;2.72;;;7.50;99.90;;;;;;6278135;28;20048;-86
2023/12/26 05:55:08;;;;;;;14.02;2.25;;;7.50;99.90;;;;;;6277767;28;20052;-84
2023/12/26 05:58:10;;;;;;;12.20;1.98;;;7.40;99.90;;;;;;6276625;28;20463;-85
2023/12/26 06:01:11;;;;;;;13.63;2.35;;;7.50;99.90;;;;;;6320867;28;20106;-85
2023/12/26 06:04:13;;;;;;;16.30;2.30;;;7.50;99.90;;;;;;6270628;28;20072;-84
2023/12/26 06:07:15;;;;;;;17.92;2.10;;;7.50;99.90;;;;;;6320569;28;20068;-84
2023/12/26 06:10:16;;;;;;;14.60;2.05;;;7.50;99.90;;;;;;6297129;28;20523;-85
2023/12/26 06:13:18;;;;;;;16.00;2.63;;;7.60;99.90;;;;;;6297510;28;20052;-84
2023/12/26 06:16:20;;;;;;;17.67;2.58;;;7.60;99.90;;;;;;6279287;28;20056;-84
2023/12/26 06:19:21;;;;;;;10.48;2.03;;;7.60;99.90;;;;;;6321602;28;20413;-84
2023/12/26 06:22:23;;;;;;;15.48;2.15;;;7.60;99.90;;;;;;6297345;28;20242;-84
2023/12/26 06:25:25;;;;;;;14.48;2.22;;;7.50;99.90;;;;;;6302235;28;20098;-84
2023/12/26 06:28:27;;;;;;;16.13;2.30;;;7.60;99.90;;;;;;6284248;28;20141;-85
2023/12/26 06:31:28;;;;;;;13.68;1.90;;;7.60;99.90;;;;;;6321427;28;20048;-84
2023/12/26 06:34:30;;;;;;;16.15;2.30;;;7.60;99.90;;;;;;6278276;28;20067;-84
2023/12/26 06:37:32;;;;;;;13.77;2.20;;;7.70;99.90;;;;;;6320378;28;20082;-84
2023/12/26 06:40:33;;;;;;;13.50;2.17;;;7.60;99.90;;;;;;6295824;28;20052;-84
2023/12/26 06:43:35;;;;;;;12.85;2.15;;;7.60;99.90;;;;;;6307157;28;20049;-84
2023/12/26 06:46:36;;;;;;;16.83;2.58;;;7.60;99.90;;;;;;6295478;28;20052;-83
2023/12/26 06:49:38;;;;;;;15.82;2.30;;;7.50;99.90;;;;;;6301694;28;20048;-84
2023/12/26 06:52:40;;;;;;;13.05;2.15;;;7.50;99.90;;;;;;6277389;28;20534;-84
2023/12/26 06:55:41;;;;;;;10.65;2.15;;;7.50;99.90;;;;;;6318699;28;20174;-84
2023/12/26 06:58:43;;;;;;;18.73;2.70;;;7.50;99.90;;;;;;6301425;28;20471;-84
2023/12/26 07:01:46;;;;;;;13.38;2.15;;;7.50;99.90;;;;;;6294542;28;20048;-83
2023/12/26 07:04:47;;;;;;;16.45;2.60;;;7.40;99.90;;;;;;6317766;28;20044;-84
2023/12/26 07:07:49;;;;;;;14.82;2.05;;;7.30;99.90;;;;;;6294045;28;20083;-84
2023/12/26 07:10:51;;;;;;;14.45;2.67;;;7.30;99.90;;;;;;6318047;28;20052;-83
2023/12/26 07:13:52;;;;;;;17.52;2.50;;;7.30;99.90;;;;;;6282491;28;20390;-84
2023/12/26 07:16:54;;;;;;;11.63;2.35;;;7.30;99.90;;;;;;6293716;28;20053;-83
2023/12/26 07:19:55;;;;;;;18.73;2.60;;;7.20;99.90;;;;;;6300462;28;20044;-83
2023/12/26 07:22:57;;;;;;;16.90;2.95;;;7.20;99.90;;;;;;6294738;28;20499;-84
2023/12/26 07:25:59;;;;;;;13.68;2.28;;;7.20;99.90;;;;;;6318258;28;20125;-84
2023/12/26 07:29:01;;;;;;;14.13;2.15;;;7.10;99.90;;;;;;6304425;28;20103;-84
2023/12/26 07:32:02;;;;;;;14.45;2.45;;;7.10;99.90;;;;;;6276011;28;20130;-82
2023/12/26 07:35:04;;;;;;;14.30;2.58;;;7.10;99.90;;;;;;6318020;28;20070;-83
2023/12/26 07:38:05;;;;;;;13.40;2.15;;;7.10;99.90;;;;;;6279821;28;20059;-84
2023/12/26 07:41:07;;;;;;;13.45;2.38;;;7.00;99.90;;;;;;6305033;28;20055;-83
2023/12/26 07:44:09;;;;;;;18.40;2.72;;;7.00;99.90;;;;;;6307993;28;20136;-84
2023/12/26 07:47:10;;;;;;;17.30;2.42;;;7.00;99.90;;;;;;6323471;28;20063;-83
2023/12/26 07:50:12;;;;;;;17.67;2.63;;;7.00;99.90;;;;;;6280249;28;20048;-83
2023/12/26 07:53:14;;;;;;;18.92;3.17;;;7.00;99.90;;;;;;6304430;28;20446;-84
2023/12/26 07:56:15;;;;;;;13.00;2.38;;;7.10;99.90;;;;;;6298269;28;20052;-84
2023/12/26 07:59:17;;;;;;;16.80;2.58;;;7.10;99.90;;;;;;6304440;28;20052;-84
2023/12/26 08:02:18;;;;;;;23.90;2.80;;;7.00;99.90;;;;;;6304357;28;20055;-83
2023/12/26 08:05:20;;;;;;;12.63;2.08;;;6.90;99.90;;;;;;6298248;28;20052;-83
2023/12/26 08:08:22;;;;;;;16.80;2.60;;;6.90;99.90;;;;;;6322525;28;20118;-84
2023/12/26 08:11:24;;;;;;;18.40;2.70;;;6.90;99.90;;;;;;6298357;28;20508;-82
2023/12/26 08:14:26;;;;;;;18.15;2.42;;;7.00;99.90;;;;;;6304952;28;20059;-83
2023/12/26 08:17:28;;;;;;;11.35;2.03;;;6.90;99.90;;;;;;6303351;28;20055;-84
2023/12/26 08:20:29;;;;;;;17.05;2.35;;;6.80;99.90;;;;;;6297763;28;20053;-83
2023/12/26 08:23:31;;;;;;;16.75;2.33;;;6.90;99.90;;;;;;6303549;28;20063;-82
2023/12/26 08:26:33;;;;;;;17.27;2.22;;;6.90;99.90;;;;;;6297345;28;20052;-83
2023/12/26 08:29:34;;;;;;;18.20;2.75;;;6.80;99.90;;;;;;6318960;28;20052;-82
2023/12/26 08:32:36;;;;;;;15.50;2.60;;;6.80;99.90;;;;;;6279927;28;20492;-83
2023/12/26 08:35:38;;;;;;;22.25;2.67;;;6.80;99.90;;;;;;6303295;28;20165;-82
2023/12/26 08:38:41;;;;;;;20.67;2.78;;;6.80;99.90;;;;;;6297468;28;20048;-82
2023/12/26 08:41:43;;;;;;;18.80;2.78;;;6.80;99.90;;;;;;6304243;28;20067;-82
2023/12/26 08:44:45;;;;;;;15.73;2.53;;;6.80;99.90;;;;;;6282577;28;20055;-82
2023/12/26 08:47:48;;;;;;;17.08;2.80;;;6.80;99.90;;;;;;6296492;28;20063;-82
2023/12/26 08:50:50;;;;;;;18.33;2.70;;;6.90;99.90;;;;;;6303450;28;20059;-84
2023/12/26 08:53:52;;;;;;;19.15;2.75;;;6.90;99.90;;;;;;6297009;28;20190;-83
2023/12/26 08:56:54;;;;;;;16.58;2.60;;;6.90;99.90;;;;;;6320701;28;20418;-83
2023/12/26 08:59:55;;;;;;;13.55;2.55;;;6.90;99.90;;;;;;6276343;28;20057;-84
2023/12/26 09:02:57;;;;;;;16.75;3.33;;;6.90;99.90;;;;;;6321217;28;20110;-83
2023/12/26 09:06:07;;;;;;;15.85;2.53;;;6.90;99.90;;;;;;6255128;28;20060;-83
2023/12/26 09:09:09;;;;;;;18.42;2.30;;;7.00;99.90;;;;;;6319094;28;20060;-83
2023/12/26 09:12:12;;;;;;;16.17;2.35;;;7.00;99.90;;;;;;6296649;28;20135;-83
2023/12/26 09:15:13;;;;;;;17.15;2.50;;;7.10;99.90;;;;;;6300600;28;20059;-83
2023/12/26 09:18:15;;;;;;;16.63;2.78;;;7.20;99.90;;;;;;6278656;28;20064;-81
2023/12/26 09:21:17;;;;;;;14.68;2.03;;;7.20;99.90;;;;;;6320592;28;20487;-83
2023/12/26 09:24:19;;;;;;;13.68;2.55;;;7.30;99.90;;;;;;6281706;28;20193;-83
2023/12/26 09:27:20;;;;;;;20.23;2.75;;;7.30;99.90;;;;;;6313077;28;20055;-83
2023/12/26 09:30:22;;;;;;;16.25;2.55;;;7.40;99.90;;;;;;6297503;28;20060;-83
2023/12/26 09:33:24;;;;;;;16.35;2.33;;;7.40;99.90;;;;;;6320833;28;20056;-84
2023/12/26 09:36:26;;;;;;;16.63;2.65;;;7.50;99.90;;;;;;6295620;28;20056;-84
2023/12/26 09:39:27;;;;;;;17.58;2.63;;;7.60;99.90;;;;;;6319697;28;20186;-83
2023/12/26 09:42:29;;;;;;;17.42;3.28;;;7.60;99.90;;;;;;6295487;28;20052;-83
2023/12/26 09:45:31;;;;;;;14.13;2.55;;;8.00;99.90;;;;;;6314880;28;20052;-84
2023/12/26 09:48:33;;;;;;;14.75;2.33;;;8.50;99.90;;;;;;6319945;28;20417;-84
2023/12/26 09:51:37;;;;;;;16.17;1.95;;;8.90;99.90;;;;;;6295389;28;20064;-83
2023/12/26 09:54:38;;;;;;;13.93;2.20;;;9.10;99.90;;;;;;6301562;28;20494;-84
2023/12/26 09:57:42;;;;;;;17.98;2.85;;;9.10;99.90;;;;;;6277361;28;20061;-83
2023/12/26 10:00:43;;;;;;;15.13;2.38;;;9.00;99.90;;;;;;6317418;28;20048;-84
2023/12/26 10:03:45;;;;;;;18.23;2.22;;;9.00;99.30;;;;;;6268605;28;20654;-84
2023/12/26 10:06:47;;;;;;;11.93;2.17;;;9.00;97.90;;;;;;6318793;28;20098;-83
2023/12/26 10:09:48;;;;;;;16.30;3.03;;;9.10;98.70;;;;;;6277320;28;20053;-83
2023/12/26 10:12:50;;;;;;;16.95;2.47;;;9.20;96.50;;;;;;6298047;28;20365;-83
2023/12/26 10:15:52;;;;;;;13.45;2.42;;;9.30;95.30;;;;;;6294362;28;20486;-83
2023/12/26 10:18:53;;;;;;;15.57;2.30;;;9.30;94.40;;;;;;6269859;28;20049;-84
2023/12/26 10:21:55;;;;;;;9.90;2.20;;;9.20;92.40;;;;;;6318028;28;20149;-83
2023/12/26 10:25:00;;;;;;;14.35;2.63;;;9.30;94.90;;;;;;6276523;28;20068;-84
2023/12/26 10:28:01;;;;;;;12.70;2.33;;;9.60;94.00;;;;;;6313283;28;20416;-84
2023/12/26 10:31:03;;;;;;;12.00;2.13;;;9.80;91.10;;;;;;6276048;28;20071;-83
2023/12/26 10:34:05;;;;;;;12.68;2.42;;;9.80;87.80;;;;;;6318803;28;20136;-83
2023/12/26 10:37:08;;;;;;;12.43;2.60;;;9.80;86.30;;;;;;6294078;28;20478;-83
2023/12/26 10:40:10;;;;;;;10.32;1.77;;;9.60;83.70;;;;;;6318732;28;20051;-83
2023/12/26 10:43:11;;;;;;;14.15;2.40;;;9.60;88.90;;;;;;6297856;28;20369;-83
2023/12/26 10:46:13;;;;;;;16.38;2.75;;;9.50;87.60;;;;;;6276297;28;20057;-83
2023/12/26 10:49:16;;;;;;;15.27;2.53;;;9.30;91.30;;;;;;6275854;28;20063;-82
2023/12/26 10:52:18;;;;;;;14.88;2.50;;;9.30;92.30;;;;;;6269228;28;20053;-82
2023/12/26 10:55:19;;;;;;;13.45;2.20;;;9.20;90.80;;;;;;6292865;28;20094;-82
2023/12/26 10:58:23;;;;;;;15.38;2.25;;;9.10;90.30;;;;;;6273019;28;20422;-82
2023/12/26 11:01:25;;;;;;;22.27;2.78;;;9.10;92.20;;;;;;6293152;28;20524;-82
2023/12/26 11:04:26;;;;;;;14.18;2.30;;;9.10;93.60;;;;;;6268928;28;20064;-82
2023/12/26 11:07:28;;;;;;;14.65;2.60;;;9.10;92.60;;;;;;6292828;28;20052;-83
2023/12/26 11:10:29;;;;;;;15.38;2.78;;;9.10;93.00;;;;;;6269124;28;20171;-83
2023/12/26 11:13:31;;;;;;;13.90;2.90;;;9.30;93.60;;;;;;6266376;28;20048;-83
2023/12/26 11:16:33;;;;;;;12.70;2.53;;;9.30;93.00;;;;;;6292696;28;20056;-83
2023/12/26 11:19:34;;;;;;;12.93;2.75;;;9.30;92.60;;;;;;6268744;28;20048;-83
2023/12/26 11:22:36;;;;;;;16.98;2.88;;;9.30;92.30;;;;;;6292381;28;20067;-82
2023/12/26 11:25:38;;;;;;;11.95;2.38;;;9.30;93.00;;;;;;6250410;28;20057;-82
2023/12/26 11:28:39;;;;;;;14.80;2.40;;;9.30;91.70;;;;;;6280613;28;20122;-81
2023/12/26 11:31:41;;;;;;;16.27;2.97;;;9.30;92.40;;;;;;6274443;28;20085;-82
2023/12/26 11:34:42;;;;;;;17.63;2.72;;;9.40;92.00;;;;;;6268825;28;20088;-82
2023/12/26 11:37:44;;;;;;;16.50;2.92;;;9.50;92.90;;;;;;6292036;28;20056;-83
2023/12/26 11:40:46;;;;;;;20.73;2.90;;;9.60;93.00;;;;;;6269114;28;20550;-82
2023/12/26 11:43:47;;;;;;;18.17;2.40;;;9.60;91.60;;;;;;6282186;28;20326;-82
2023/12/26 11:46:49;;;;;;;13.88;2.35;;;9.50;91.00;;;;;;6293501;28;20052;-82
2023/12/26 11:49:50;;;;;;;10.68;2.22;;;9.40;91.00;;;;;;6317365;28;20071;-82
2023/12/26 11:52:52;;;;;;;14.50;2.45;;;9.40;92.20;;;;;;6293487;28;20063;-82
2023/12/26 11:55:54;;;;;;;11.20;2.10;;;9.40;91.00;;;;;;6317345;28;20566;-82
2023/12/26 11:58:55;;;;;;;13.93;2.15;;;9.50;92.10;;;;;;6304166;28;20063;-82
2023/12/26 12:01:57;;;;;;;15.98;2.70;;;9.60;91.60;;;;;;6293605;28;20049;-82
2023/12/26 12:04:59;;;;;;;11.68;2.30;;;9.70;91.70;;;;;;6316968;28;20059;-82
2023/12/26 12:08:00;;;;;;;18.77;2.47;;;9.80;87.30;;;;;;6293115;28;20059;-82
2023/12/26 12:11:02;;;;;;;13.02;2.40;;;10.00;90.40;;;;;;6317079;28;20148;-82
2023/12/26 12:14:03;;;;;;;12.48;2.33;;;10.20;88.90;;;;;;6302745;28;20071;-82
2023/12/26 12:17:05;;;;;;;11.68;2.17;;;10.40;87.10;;;;;;6291213;28;20148;-82
2023/12/26 12:20:06;;;;;;;14.52;2.15;;;10.50;76.60;;;;;;6316895;28;20058;-81
2023/12/26 12:23:08;;;;;;;11.60;2.30;;;10.50;80.70;;;;;;6295059;28;20052;-81
2023/12/26 12:26:09;;;;;;;11.55;2.38;;;10.40;77.80;;;;;;6321566;28;20044;-82
2023/12/26 12:29:11;;;;;;;15.15;2.45;;;10.40;69.20;;;;;;6307944;28;20056;-83
2023/12/26 12:32:13;;;;;;;11.77;2.22;;;10.30;71.90;;;;;;6297363;28;20500;-83
2023/12/26 12:35:14;;;;;;;13.35;2.28;;;10.30;85.80;;;;;;6321715;28;20494;-83
2023/12/26 12:38:16;;;;;;;15.60;2.78;;;10.30;79.10;;;;;;6296810;28;20063;-83
2023/12/26 12:41:17;;;;;;;8.52;1.98;;;10.30;80.30;;;;;;6321397;28;20048;-83
2023/12/26 12:44:19;;;;;;;14.30;2.45;;;10.20;80.40;;;;;;6300232;28;20064;-82
2023/12/26 12:47:21;;;;;;;14.90;2.65;;;10.20;79.90;;;;;;6319717;28;20055;-81
2023/12/26 12:50:22;;;;;;;17.08;2.47;;;10.10;77.70;;;;;;6295092;28;20063;-81
2023/12/26 12:53:24;;;;;;;12.70;2.58;;;10.10;85.20;;;;;;6320854;28;20422;-82
2023/12/26 12:56:25;;;;;;;11.32;2.30;;;10.00;78.50;;;;;;6296561;28;20052;-81
2023/12/26 12:59:27;;;;;;;10.48;2.38;;;9.90;81.90;;;;;;6302892;28;20075;-81
2023/12/26 13:02:29;;;;;;;15.63;2.60;;;9.90;82.70;;;;;;6320729;28;20056;-82
2023/12/26 13:05:30;;;;;;;14.38;2.40;;;10.00;86.80;;;;;;6295305;28;20129;-82
2023/12/26 13:08:32;;;;;;;15.40;2.38;;;9.90;87.20;;;;;;6319137;28;20466;-81
2023/12/26 13:11:34;;;;;;;14.35;2.50;;;9.90;85.70;;;;;;6295356;28;20541;-79
2023/12/26 13:14:35;;;;;;;13.85;2.47;;;9.80;83.00;;;;;;6318992;28;20055;-81
2023/12/26 13:17:37;;;;;;;14.02;2.38;;;9.80;87.80;;;;;;6297220;28;20495;-82
2023/12/26 13:20:38;;;;;;;11.35;2.47;;;9.80;86.00;;;;;;6320950;28;20071;-81
2023/12/26 13:23:40;;;;;;;14.05;2.97;;;9.80;85.80;;;;;;6295788;28;20536;-82
2023/12/26 13:26:42;;;;;;;17.08;3.35;;;9.70;86.70;;;;;;6319559;28;20052;-82
2023/12/26 13:29:43;;;;;;;12.13;2.42;;;9.80;87.80;;;;;;6292776;28;20050;-82
2023/12/26 13:32:45;;;;;;;13.90;2.33;;;9.80;83.90;;;;;;6320191;28;20048;-82
2023/12/26 13:35:47;;;;;;;10.70;2.40;;;9.80;84.50;;;;;;6295453;28;20064;-82
2023/12/26 13:38:48;;;;;;;16.08;2.47;;;9.90;84.70;;;;;;6318226;28;20044;-82
2023/12/26 13:41:50;;;;;;;13.60;2.42;;;10.00;85.00;;;;;;6295785;28;20414;-82
2023/12/26 13:44:52;;;;;;;16.17;2.85;;;9.90;80.70;;;;;;6303672;28;20163;-82
2023/12/26 13:47:53;;;;;;;15.13;2.78;;;9.90;84.70;;;;;;6270500;28;20056;-83
2023/12/26 13:50:55;;;;;;;14.65;3.05;;;9.90;84.70;;;;;;6276133;28;20127;-82
2023/12/26 13:53:57;;;;;;;13.48;2.70;;;10.00;84.90;;;;;;6270833;28;20500;-82
2023/12/26 13:56:58;;;;;;;16.73;3.28;;;10.00;82.20;;;;;;6294563;28;20063;-82
2023/12/26 14:00:00;;;;;;;18.08;2.90;;;10.00;78.40;;;;;;6267968;28;20045;-82
2023/12/26 14:03:02;;;;;;;18.45;3.47;;;9.90;77.10;;;;;;6294926;28;20504;-82
2023/12/26 14:06:04;;;;;;;17.35;2.92;;;9.90;80.20;;;;;;6270613;28;20056;-82
2023/12/26 14:09:06;;;;;;;11.90;2.60;;;9.90;79.50;;;;;;6275970;28;20424;-82
2023/12/26 14:12:08;;;;;;;12.98;2.80;;;9.80;83.60;;;;;;6270453;28;20618;-82
2023/12/26 14:15:09;;;;;;;11.93;2.20;;;9.80;79.90;;;;;;6292806;28;20052;-83
2023/12/26 14:18:11;;;;;;;11.25;2.72;;;9.70;83.90;;;;;;6269611;28;20068;-82
2023/12/26 14:21:13;;;;;;;14.07;2.60;;;9.60;85.00;;;;;;6293774;28;20083;-81
2023/12/26 14:24:14;;;;;;;13.23;3.08;;;9.60;83.30;;;;;;6269789;28;20447;-82
2023/12/26 14:27:16;;;;;;;12.77;2.38;;;9.50;89.90;;;;;;6293774;28;20627;-82
2023/12/26 14:30:18;;;;;;;10.02;2.65;;;9.50;90.30;;;;;;6243248;28;20188;-82
2023/12/26 14:33:20;;;;;;;19.13;3.00;;;9.50;89.40;;;;;;6293153;28;20052;-81
2023/12/26 14:36:22;;;;;;;11.10;2.28;;;9.40;87.60;;;;;;6269662;28;20059;-82
2023/12/26 14:39:24;;;;;;;10.40;2.30;;;9.40;90.50;;;;;;6275650;28;20056;-82
2023/12/26 14:42:25;;;;;;;13.15;2.97;;;9.40;90.40;;;;;;6269829;28;20048;-82
2023/12/26 14:45:27;;;;;;;9.88;2.20;;;9.40;91.40;;;;;;6305178;28;20464;-82
2023/12/26 14:48:29;;;;;;;9.98;2.60;;;9.40;90.50;;;;;;6318734;28;20402;-82
2023/12/26 14:51:31;;;;;;;9.43;2.00;;;9.30;90.10;;;;;;6293997;28;20052;-81
2023/12/26 14:54:33;;;;;;;13.23;1.98;;;9.30;89.20;;;;;;6318373;28;20055;-82
2023/12/26 14:57:34;;;;;;;12.40;2.58;;;9.30;89.40;;;;;;6294379;28;20135;-81
2023/12/26 15:00:36;;;;;;;13.45;2.80;;;9.30;91.70;;;;;;6316987;28;20048;-83
2023/12/26 15:03:41;;;;;;;11.70;2.45;;;9.20;90.00;;;;;;6268966;28;20060;-81
2023/12/26 15:06:42;;;;;;;10.63;2.00;;;9.20;90.80;;;;;;6318100;28;20051;-82
2023/12/26 15:09:44;;;;;;;11.30;2.30;;;9.10;92.00;;;;;;6295535;28;20059;-82
2023/12/26 15:12:46;;;;;;;18.30;2.50;;;9.00;93.60;;;;;;6318743;28;20048;-82
2023/12/26 15:15:47;;;;;;;13.13;2.42;;;8.90;95.30;;;;;;6293112;28;20064;-82
2023/12/26 15:18:49;;;;;;;11.68;2.30;;;8.70;93.60;;;;;;6269980;28;20056;-83
2023/12/26 15:21:51;;;;;;;13.40;2.50;;;8.60;95.80;;;;;;6319374;28;20059;-82
2023/12/26 15:24:52;;;;;;;12.45;2.45;;;8.40;97.70;;;;;;6297006;28;20060;-83
2023/12/26 15:27:54;;;;;;;11.23;2.45;;;8.30;98.10;;;;;;6314028;28;20539;-82
2023/12/26 15:30:57;;;;;;;13.05;2.38;;;8.10;99.60;;;;;;6293402;28;20056;-82
2023/12/26 15:33:58;;;;;;;12.90;2.50;;;7.90;99.90;;;;;;6268472;28;20420;-82
2023/12/26 15:37:00;;;;;;;12.25;2.40;;;7.70;99.90;;;;;;6317518;28;20369;-82
2023/12/26 15:40:02;;;;;;;13.00;2.67;;;7.60;99.90;;;;;;6294096;28;20048;-82
2023/12/26 15:43:05;;;;;;;10.07;2.30;;;7.40;99.90;;;;;;6312788;28;20056;-82